sensor_id;sensor_type;location;lat;lon;timestamp;P1;P2;P0
53698;PMS7003;39591;53.952;27.612;2022-09-01T00:03:24;1;1;0.8
53698;PMS7003;39591;53.952;27.612;2022-09-01T00:08:35;1.8;1.8;1.6
53698;PMS7003;39591;53.952;27.612;2022-09-01T00:12:56;1.4;1.2;1.2
53698;PMS7003;39591;53.952;27.612;2022-09-01T00:17:56;1.8;1.4;1.2
53698;PMS7003;39591;53.952;27.612;2022-09-01T00:23:35;1.6;1.2;1.2
53698;PMS7003;39591;53.952;27.612;2022-09-01T00:28:14;2.4;2;1.6
53698;PMS7003;39591;53.952;27.612;2022-09-01T00:33:33;1.6;1.6;1.6
53698;PMS7003;39591;53.952;27.612;2022-09-01T00:38:14;1.6;1.4;1
53698;PMS7003;39591;53.952;27.612;2022-09-01T00:43:40;1.8;1.8;1.6
53698;PMS7003;39591;53.952;27.612;2022-09-01T00:48:35;1.6;1.2;1
53698;PMS7003;39591;53.952;27.612;2022-09-01T00:53:14;1.2;1.2;1.2
53698;PMS7003;39591;53.952;27.612;2022-09-01T00:58:13;2.2;1.4;1.4
53698;PMS7003;39591;53.952;27.612;2022-09-01T01:03:02;1.6;1.2;1
53698;PMS7003;39591;53.952;27.612;2022-09-01T01:07:57;2.2;1.2;1
53698;PMS7003;39591;53.952;27.612;2022-09-01T01:13:18;2;1.6;1.4
53698;PMS7003;39591;53.952;27.612;2022-09-01T01:18:19;1.8;1.2;1.2
53698;PMS7003;39591;53.952;27.612;2022-09-01T01:23:39;1.2;0.8;0.8
53698;PMS7003;39591;53.952;27.612;2022-09-01T01:28:38;1.4;1.2;1.2
53698;PMS7003;39591;53.952;27.612;2022-09-01T01:33:18;1.8;1.6;1.2
53698;PMS7003;39591;53.952;27.612;2022-09-01T01:38:35;1.4;1.2;1
53698;PMS7003;39591;53.952;27.612;2022-09-01T01:43:37;1;1;1
53698;PMS7003;39591;53.952;27.612;2022-09-01T01:48:23;2.2;1.6;1.2
53698;PMS7003;39591;53.952;27.612;2022-09-01T01:52:56;0.8;0.8;0.6
53698;PMS7003;39591;53.952;27.612;2022-09-01T01:58:07;1.2;1.2;1
53698;PMS7003;39591;53.952;27.612;2022-09-01T02:03:35;1.8;1;1
53698;PMS7003;39591;53.952;27.612;2022-09-01T02:08:24;1.4;1;0.8
53698;PMS7003;39591;53.952;27.612;2022-09-01T02:13:18;1.4;1;0.8
53698;PMS7003;39591;53.952;27.612;2022-09-01T02:18:16;1.8;1.6;1.4
53698;PMS7003;39591;53.952;27.612;2022-09-01T02:23:15;2.4;1.6;1.4
53698;PMS7003;39591;53.952;27.612;2022-09-01T02:28:25;1.6;1.4;1.2
53698;PMS7003;39591;53.952;27.612;2022-09-01T02:33:25;2.6;2;1.8
53698;PMS7003;39591;53.952;27.612;2022-09-01T02:38:37;1.6;1;0.8
53698;PMS7003;39591;53.952;27.612;2022-09-01T02:42:57;1.8;1.8;1.2
53698;PMS7003;39591;53.952;27.612;2022-09-01T02:47:57;1.4;1.2;0.8
53698;PMS7003;39591;53.952;27.612;2022-09-01T02:53:39;2.2;2;1.8
53698;PMS7003;39591;53.952;27.612;2022-09-01T02:58:29;1.8;1.6;1.4
53698;PMS7003;39591;53.952;27.612;2022-09-01T03:03:35;2.2;2;1.6
53698;PMS7003;39591;53.952;27.612;2022-09-01T03:08:07;2;1.4;1.4
53698;PMS7003;39591;53.952;27.612;2022-09-01T03:13:29;1.8;1.2;1
53698;PMS7003;39591;53.952;27.612;2022-09-01T03:18:39;2.8;2.4;2
53698;PMS7003;39591;53.952;27.612;2022-09-01T03:23:27;3;2.2;2.2
53698;PMS7003;39591;53.952;27.612;2022-09-01T03:28:15;4.6;3.6;2.8
53698;PMS7003;39591;53.952;27.612;2022-09-01T03:33:03;4.2;3.2;2.6
53698;PMS7003;39591;53.952;27.612;2022-09-01T03:37:58;2.4;2.4;2.2
53698;PMS7003;39591;53.952;27.612;2022-09-01T03:42:58;2.4;1.8;1.6
53698;PMS7003;39591;53.952;27.612;2022-09-01T03:48:19;1.6;1.6;1.4
53698;PMS7003;39591;53.952;27.612;2022-09-01T03:53:37;2.2;1.8;1.6
53698;PMS7003;39591;53.952;27.612;2022-09-01T03:58:23;2.4;2;1.4
53698;PMS7003;39591;53.952;27.612;2022-09-01T04:03:15;2.4;2.2;1.8
53698;PMS7003;39591;53.952;27.612;2022-09-01T04:08:15;3.2;2.6;2.4
53698;PMS7003;39591;53.952;27.612;2022-09-01T04:13:26;3.2;2.6;2
53698;PMS7003;39591;53.952;27.612;2022-09-01T04:18:39;3.4;2.8;2.4
53698;PMS7003;39591;53.952;27.612;2022-09-01T04:23:05;2.6;2.2;2
53698;PMS7003;39591;53.952;27.612;2022-09-01T04:28:19;3.2;2;1.8
53698;PMS7003;39591;53.952;27.612;2022-09-01T04:33:07;2.6;2.2;2.2
53698;PMS7003;39591;53.952;27.612;2022-09-01T04:38:25;3;2.4;2.2
53698;PMS7003;39591;53.952;27.612;2022-09-01T04:43:19;3;2.6;2
53698;PMS7003;39591;53.952;27.612;2022-09-01T04:48:29;2;2;2
53698;PMS7003;39591;53.952;27.612;2022-09-01T04:53:25;2.8;2.8;2.4
53698;PMS7003;39591;53.952;27.612;2022-09-01T04:58:25;2.8;2.6;2.4
53698;PMS7003;39591;53.952;27.612;2022-09-01T05:03:28;3;2.2;1.8
53698;PMS7003;39591;53.952;27.612;2022-09-01T05:08:39;2.8;2.8;2.4
53698;PMS7003;39591;53.952;27.612;2022-09-01T05:12:57;3.8;3;2.6
53698;PMS7003;39591;53.952;27.612;2022-09-01T05:18:05;3.4;2.8;2.4
53698;PMS7003;39591;53.952;27.612;2022-09-01T05:23:19;2.4;2;2
53698;PMS7003;39591;53.952;27.612;2022-09-01T05:28:37;3;2.2;2.2
53698;PMS7003;39591;53.952;27.612;2022-09-01T05:33:35;2.4;2.4;2.2
53698;PMS7003;39591;53.952;27.612;2022-09-01T05:38:15;2.4;2.2;2
53698;PMS7003;39591;53.952;27.612;2022-09-01T05:43:31;2.6;1.8;1.8
53698;PMS7003;39591;53.952;27.612;2022-09-01T05:48:37;2.6;2.2;1.8
53698;PMS7003;39591;53.952;27.612;2022-09-01T05:53:15;2;1.8;1.6
53698;PMS7003;39591;53.952;27.612;2022-09-01T05:58:14;2;2;1.8
53698;PMS7003;39591;53.952;27.612;2022-09-01T06:03:03;2.6;2;1.8
53698;PMS7003;39591;53.952;27.612;2022-09-01T06:08:17;2;2;1.4
53698;PMS7003;39591;53.952;27.612;2022-09-01T06:13:07;1.4;1;0.8
53698;PMS7003;39591;53.952;27.612;2022-09-01T06:18:17;2;1.6;1
53698;PMS7003;39591;53.952;27.612;2022-09-01T06:23:37;1;0.6;0.6
53698;PMS7003;39591;53.952;27.612;2022-09-01T06:28:23;0.6;0.4;0.2
53698;PMS7003;39591;53.952;27.612;2022-09-01T06:33:13;0;0;0
53698;PMS7003;39591;53.952;27.612;2022-09-01T06:37:57;1;0.6;0.6
53698;PMS7003;39591;53.952;27.612;2022-09-01T06:43:23;1.8;0.8;0.8
53698;PMS7003;39591;53.952;27.612;2022-09-01T06:48:25;1.4;0.4;0.4
53698;PMS7003;39591;53.952;27.612;2022-09-01T06:53:29;1;0.6;0.6
53698;PMS7003;39591;53.952;27.612;2022-09-01T06:57:57;0.6;0.6;0.2
53698;PMS7003;39591;53.952;27.612;2022-09-01T07:03:03;1;0.4;0.4
53698;PMS7003;39591;53.952;27.612;2022-09-01T07:08:25;0.4;0.4;0.4
53698;PMS7003;39591;53.952;27.612;2022-09-01T07:13:20;0.4;0.4;0.4
53698;PMS7003;39591;53.952;27.612;2022-09-01T07:18:31;0.2;0;0
53698;PMS7003;39591;53.952;27.612;2022-09-01T07:23:25;1.6;0.6;0.6
53698;PMS7003;39591;53.952;27.612;2022-09-01T07:28:23;0.6;0.6;0.2
53698;PMS7003;39591;53.952;27.612;2022-09-01T07:33:25;0.6;0.6;0.6
53698;PMS7003;39591;53.952;27.612;2022-09-01T07:38:39;0.4;0.2;0
53698;PMS7003;39591;53.952;27.612;2022-09-01T07:42:57;1.2;1;1
53698;PMS7003;39591;53.952;27.612;2022-09-01T07:47:57;0.6;0.2;0.2
53698;PMS7003;39591;53.952;27.612;2022-09-01T07:53:23;2.2;1.2;0.8
53698;PMS7003;39591;53.952;27.612;2022-09-01T07:58:41;1.2;0.8;0.8
53698;PMS7003;39591;53.952;27.612;2022-09-01T08:03:29;0.6;0.6;0.2
53698;PMS7003;39591;53.952;27.612;2022-09-01T08:08:39;1.2;1;0.6
53698;PMS7003;39591;53.952;27.612;2022-09-01T08:13:19;1.2;1.2;1
53698;PMS7003;39591;53.952;27.612;2022-09-01T08:18:29;2;1.4;1.2
53698;PMS7003;39591;53.952;27.612;2022-09-01T08:23:41;1.8;0.8;0.8
53698;PMS7003;39591;53.952;27.612;2022-09-01T08:28:15;1.4;0.8;0.6
53698;PMS7003;39591;53.952;27.612;2022-09-01T08:32:57;1.6;1.6;1
53698;PMS7003;39591;53.952;27.612;2022-09-01T08:37:57;1.2;0.8;0.8
53698;PMS7003;39591;53.952;27.612;2022-09-01T08:53:59;2;1.8;1.4
53698;PMS7003;39591;53.952;27.612;2022-09-01T08:58:39;2.4;1.4;1.2
53698;PMS7003;39591;53.952;27.612;2022-09-01T09:03:45;1.4;1.4;1.2
53698;PMS7003;39591;53.952;27.612;2022-09-01T09:08:52;1.2;0.8;0.8
53698;PMS7003;39591;53.952;27.612;2022-09-01T09:14:14;1.2;0.8;0.4
53698;PMS7003;39591;53.952;27.612;2022-09-01T09:18:44;0.4;0.4;0.2
53698;PMS7003;39591;53.952;27.612;2022-09-01T09:23:42;0.8;0.6;0.4
53698;PMS7003;39591;53.952;27.612;2022-09-01T09:28:07;0.8;0.8;0.8
53698;PMS7003;39591;53.952;27.612;2022-09-01T09:32:58;2.2;1.4;1
53698;PMS7003;39591;53.952;27.612;2022-09-01T09:38:41;0.8;0.8;0.8
53698;PMS7003;39591;53.952;27.612;2022-09-01T09:43:30;1.8;1.6;1.6
53698;PMS7003;39591;53.952;27.612;2022-09-01T09:48:29;1.8;1.8;1.4
53698;PMS7003;39591;53.952;27.612;2022-09-01T09:53:31;1;1;0.4
53698;PMS7003;39591;53.952;27.612;2022-09-01T09:58:33;1.2;1;1
53698;PMS7003;39591;53.952;27.612;2022-09-01T10:03:15;0.8;0.6;0.6
53698;PMS7003;39591;53.952;27.612;2022-09-01T10:08:38;1.6;1;1
53698;PMS7003;39591;53.952;27.612;2022-09-01T10:13:41;1.2;1.2;1
53698;PMS7003;39591;53.952;27.612;2022-09-01T10:18:08;1.6;1.4;1.4
53698;PMS7003;39591;53.952;27.612;2022-09-01T10:22:57;0.8;0.6;0.2
53698;PMS7003;39591;53.952;27.612;2022-09-01T10:28:46;1.4;1.2;0.8
53698;PMS7003;39591;53.952;27.612;2022-09-01T10:33:29;1.4;1.2;1
53698;PMS7003;39591;53.952;27.612;2022-09-01T10:38:41;1;1;0.6
53698;PMS7003;39591;53.952;27.612;2022-09-01T10:42:58;1.8;0.4;0.4
53698;PMS7003;39591;53.952;27.612;2022-09-01T10:48:31;0.4;0.4;0.4
53698;PMS7003;39591;53.952;27.612;2022-09-01T10:53:47;0.6;0.6;0.4
53698;PMS7003;39591;53.952;27.612;2022-09-01T11:03:37;1.8;1;0.8
53698;PMS7003;39591;53.952;27.612;2022-09-01T11:07:57;1;1;1
53698;PMS7003;39591;53.952;27.612;2022-09-01T11:13:35;1.4;1;1
53698;PMS7003;39591;53.952;27.612;2022-09-01T11:17:57;1.8;1;1
53698;PMS7003;39591;53.952;27.612;2022-09-01T11:23:38;1.2;1.2;0.8
53698;PMS7003;39591;53.952;27.612;2022-09-01T11:28:34;1.8;1.4;1.2
53698;PMS7003;39591;53.952;27.612;2022-09-01T11:34:14;2;1.2;1
53698;PMS7003;39591;53.952;27.612;2022-09-01T11:38:07;0.8;0.8;0.6
53698;PMS7003;39591;53.952;27.612;2022-09-01T11:43:39;1;0.6;0.6
53698;PMS7003;39591;53.952;27.612;2022-09-01T11:48:45;1.4;0.8;0.6
53698;PMS7003;39591;53.952;27.612;2022-09-01T11:53:41;0.8;0.6;0.6
53698;PMS7003;39591;53.952;27.612;2022-09-01T11:58:09;0.8;0.2;0.2
53698;PMS7003;39591;53.952;27.612;2022-09-01T12:02:57;0.4;0.2;0.2
53698;PMS7003;39591;53.952;27.612;2022-09-01T12:08:41;0.4;0.4;0
53698;PMS7003;39591;53.952;27.612;2022-09-01T12:13:31;0.6;0.4;0.4
53698;PMS7003;39591;53.952;27.612;2022-09-01T12:18:25;0.8;0.2;0.2
53698;PMS7003;39591;53.952;27.612;2022-09-01T12:23:32;0.8;0.6;0.6
53698;PMS7003;39591;53.952;27.612;2022-09-01T12:28:28;0.4;0.2;0
53698;PMS7003;39591;53.952;27.612;2022-09-01T12:33:27;1.2;0.8;0.4
53698;PMS7003;39591;53.952;27.612;2022-09-01T12:38:31;1.8;1;1
53698;PMS7003;39591;53.952;27.612;2022-09-01T12:43:43;0.8;0.4;0
53698;PMS7003;39591;53.952;27.612;2022-09-01T12:48:22;0.6;0.6;0.6
53698;PMS7003;39591;53.952;27.612;2022-09-01T12:52:57;0.6;0.4;0.2
53698;PMS7003;39591;53.952;27.612;2022-09-01T12:58:09;0.8;0.6;0.6
53698;PMS7003;39591;53.952;27.612;2022-09-01T13:03:41;0;0;0
53698;PMS7003;39591;53.952;27.612;2022-09-01T13:08:45;0.8;0.4;0.2
53698;PMS7003;39591;53.952;27.612;2022-09-01T13:13:24;0.6;0.2;0.2
53698;PMS7003;39591;53.952;27.612;2022-09-01T13:18:42;0.6;0.6;0.4
53698;PMS7003;39591;53.952;27.612;2022-09-01T13:23:33;0.6;0.6;0.2
53698;PMS7003;39591;53.952;27.612;2022-09-01T13:28:17;1.4;1.2;1
53698;PMS7003;39591;53.952;27.612;2022-09-01T13:32:58;0.6;0.2;0.2
53698;PMS7003;39591;53.952;27.612;2022-09-01T13:37:57;0.3;0.3;0
53698;PMS7003;39591;53.952;27.612;2022-09-01T13:43:18;0.2;0.2;0.2
53698;PMS7003;39591;53.952;27.612;2022-09-01T13:48:07;0.6;0.6;0.6
53698;PMS7003;39591;53.952;27.612;2022-09-01T13:53:21;0.8;0.6;0.6
53698;PMS7003;39591;53.952;27.612;2022-09-01T13:58:41;0.6;0.4;0.2
53698;PMS7003;39591;53.952;27.612;2022-09-01T14:03:25;0.2;0.2;0.2
53698;PMS7003;39591;53.952;27.612;2022-09-01T14:08:18;0.8;0.6;0.6
53698;PMS7003;39591;53.952;27.612;2022-09-01T14:13:07;0.4;0;0
53698;PMS7003;39591;53.952;27.612;2022-09-01T14:18:29;1;0.2;0.2
53698;PMS7003;39591;53.952;27.612;2022-09-01T14:23:43;1.4;1;0.4
53698;PMS7003;39591;53.952;27.612;2022-09-01T14:28:19;1.2;0.8;0.6
53698;PMS7003;39591;53.952;27.612;2022-09-01T14:32:58;0.8;0.6;0.6
53698;PMS7003;39591;53.952;27.612;2022-09-01T14:38:07;1.2;0.6;0.4
53698;PMS7003;39591;53.952;27.612;2022-09-01T14:43:31;1.4;0.6;0.4
53698;PMS7003;39591;53.952;27.612;2022-09-01T14:48:09;1;0.8;0.8
53698;PMS7003;39591;53.952;27.612;2022-09-01T14:53:31;0;0;0
53698;PMS7003;39591;53.952;27.612;2022-09-01T14:58:29;0.4;0.4;0.4
53698;PMS7003;39591;53.952;27.612;2022-09-01T15:03:25;0.4;0.4;0.4
53698;PMS7003;39591;53.952;27.612;2022-09-01T15:08:29;1.6;1.2;1.2
53698;PMS7003;39591;53.952;27.612;2022-09-01T15:13:43;2.6;1;1
53698;PMS7003;39591;53.952;27.612;2022-09-01T15:18:07;1.2;1;1
53698;PMS7003;39591;53.952;27.612;2022-09-01T15:22:57;0.6;0.4;0.4
53698;PMS7003;39591;53.952;27.612;2022-09-01T15:27:57;1.2;0.6;0.6
53698;PMS7003;39591;53.952;27.612;2022-09-01T15:33:37;1.2;1.2;0.6
53698;PMS7003;39591;53.952;27.612;2022-09-01T15:38:41;1.6;1.2;1
53698;PMS7003;39591;53.952;27.612;2022-09-01T15:42:57;1.2;1;1
53698;PMS7003;39591;53.952;27.612;2022-09-01T15:48:41;1.8;0.8;0.6
53698;PMS7003;39591;53.952;27.612;2022-09-01T15:53:32;1.2;0.8;0.8
53698;PMS7003;39591;53.952;27.612;2022-09-01T15:58:19;0.7;0.7;0.7
